Time;durP1;ratioP1;P1;durP2;ratioP2;P2;SDS_P1;SDS_P2;PMS_P1;PMS_P2;Temp;Humidity;BMP_temperature;BMP_pressure;BME280_temperature;BME280_humidity;BME280_pressure;Samples;Min_cycle;Max_cycle;Signal;HPM_P1;HPM_P2
2021/12/26 00:00:12;;;;;;;17.33;11.67;;;;;;;;;;4997577;28;20216;-71
2021/12/26 00:02:41;;;;;;;15.57;11.90;;;;;;;;;;4997270;28;20215;-71
2021/12/26 00:05:09;;;;;;;15.50;12.10;;;;;;;;;;4997819;28;20204;-71
2021/12/26 00:07:37;;;;;;;20.90;11.97;;;;;;;;;;4997752;28;20235;-71
2021/12/26 00:10:05;;;;;;;19.93;12.47;;;;;;;;;;5003746;28;20204;-71
2021/12/26 00:12:33;;;;;;;22.17;12.80;;;;;;;;;;5023081;28;20209;-70
2021/12/26 00:15:03;;;;;;;19.17;11.83;;;;;;;;;;4997719;28;20205;-71
2021/12/26 00:17:31;;;;;;;17.50;12.47;;;;;;;;;;5004179;28;20250;-71
2021/12/26 00:19:59;;;;;;;21.80;11.43;;;;;;;;;;5017015;28;20215;-71
2021/12/26 00:22:27;;;;;;;17.63;11.27;;;;;;;;;;5014824;28;20205;-71
2021/12/26 00:24:55;;;;;;;21.13;11.87;;;;;;;;;;4997509;28;20209;-71
2021/12/26 00:27:24;;;;;;;18.73;11.40;;;;;;;;;;4999809;28;20249;-70
2021/12/26 00:29:52;;;;;;;17.17;10.97;;;;;;;;;;5022481;28;20209;-71
2021/12/26 00:32:21;;;;;;;15.83;11.37;;;;;;;;;;4997580;28;20235;-72
2021/12/26 00:34:50;;;;;;;17.60;11.73;;;;;;;;;;5010163;28;20214;-73
2021/12/26 00:37:18;;;;;;;15.00;11.77;;;;;;;;;;4997215;28;20228;-71
2021/12/26 00:39:46;;;;;;;15.10;11.20;;;;;;;;;;5004069;28;20239;-71
2021/12/26 00:42:14;;;;;;;20.30;11.63;;;;;;;;;;5016945;28;20215;-71
2021/12/26 00:44:42;;;;;;;16.13;12.07;;;;;;;;;;5012808;28;20209;-71
2021/12/26 00:47:11;;;;;;;18.53;12.40;;;;;;;;;;4996943;28;20235;-71
2021/12/26 00:49:41;;;;;;;16.80;11.53;;;;;;;;;;4997034;28;20694;-71
2021/12/26 00:52:09;;;;;;;18.90;12.37;;;;;;;;;;5017364;28;20599;-71
2021/12/26 00:54:37;;;;;;;20.23;12.20;;;;;;;;;;4999610;28;20557;-71
2021/12/26 00:57:05;;;;;;;17.30;12.00;;;;;;;;;;5010072;28;20234;-71
2021/12/26 00:59:33;;;;;;;18.00;12.37;;;;;;;;;;5027934;28;20210;-72
2021/12/26 01:02:01;;;;;;;20.93;12.07;;;;;;;;;;4996737;28;20209;-72
2021/12/26 01:04:30;;;;;;;18.17;12.60;;;;;;;;;;4996510;28;20321;-71
2021/12/26 01:06:59;;;;;;;17.07;12.33;;;;;;;;;;4996744;28;20778;-72
2021/12/26 01:09:29;;;;;;;18.67;11.93;;;;;;;;;;4996778;28;20211;-70
2021/12/26 01:12:00;;;;;;;15.90;12.40;;;;;;;;;;4999391;28;20235;-71
2021/12/26 01:14:31;;;;;;;18.40;12.87;;;;;;;;;;5013689;28;20219;-71
2021/12/26 01:17:11;;;;;;;20.17;12.13;;;;;;;;;;5021283;28;20229;-71
2021/12/26 01:19:47;;;;;;;19.10;12.57;;;;;;;;;;4996710;28;20219;-72
2021/12/26 01:22:17;;;;;;;17.20;11.80;;;;;;;;;;5003955;28;20208;-72
2021/12/26 01:24:45;;;;;;;16.07;11.77;;;;;;;;;;5016137;28;20216;-71
2021/12/26 01:27:13;;;;;;;16.67;12.10;;;;;;;;;;5016170;28;20733;-71
2021/12/26 01:29:41;;;;;;;17.83;11.67;;;;;;;;;;5019370;28;20200;-72
2021/12/26 01:32:09;;;;;;;19.53;12.70;;;;;;;;;;5012358;28;20235;-71
2021/12/26 01:34:37;;;;;;;17.73;12.17;;;;;;;;;;5009790;28;20667;-71
2021/12/26 01:37:05;;;;;;;20.70;11.87;;;;;;;;;;4996544;28;20232;-72
2021/12/26 01:39:35;;;;;;;22.27;12.93;;;;;;;;;;4996462;28;20215;-71
2021/12/26 01:42:03;;;;;;;22.87;12.27;;;;;;;;;;5003046;28;20196;-71
2021/12/26 01:44:34;;;;;;;19.07;12.47;;;;;;;;;;5013121;28;20216;-71
2021/12/26 01:47:02;;;;;;;23.03;13.73;;;;;;;;;;4995130;28;20225;-70
2021/12/26 01:49:31;;;;;;;23.90;13.03;;;;;;;;;;4996051;28;20223;-71
2021/12/26 01:52:00;;;;;;;21.43;13.00;;;;;;;;;;4995841;28;20237;-70
2021/12/26 01:54:32;;;;;;;23.63;12.63;;;;;;;;;;4995971;28;20551;-71
2021/12/26 01:57:02;;;;;;;22.20;13.10;;;;;;;;;;5013211;28;20227;-71
2021/12/26 01:59:30;;;;;;;19.23;13.00;;;;;;;;;;5008587;28;20211;-71
2021/12/26 02:01:59;;;;;;;22.07;12.93;;;;;;;;;;5020802;28;20204;-70
2021/12/26 02:04:28;;;;;;;21.73;13.80;;;;;;;;;;4995797;28;20243;-71
2021/12/26 02:06:56;;;;;;;23.37;13.43;;;;;;;;;;4995687;28;20225;-71
2021/12/26 02:09:24;;;;;;;25.93;14.50;;;;;;;;;;4995904;28;20648;-70
2021/12/26 02:11:52;;;;;;;29.47;14.70;;;;;;;;;;4999067;28;20246;-71
2021/12/26 02:14:21;;;;;;;25.67;13.93;;;;;;;;;;5016568;28;20220;-71
2021/12/26 02:16:49;;;;;;;28.77;14.33;;;;;;;;;;4995639;28;20224;-71
2021/12/26 02:19:17;;;;;;;32.43;15.00;;;;;;;;;;5019592;28;20204;-71
2021/12/26 02:24:44;;;;;;;38.67;16.60;;;;;;;;;;4995470;28;20205;-71
2021/12/26 02:29:58;;;;;;;37.43;16.40;;;;;;;;;;5011002;28;20204;-71
2021/12/26 02:32:26;;;;;;;39.97;17.60;;;;;;;;;;5024658;28;20220;-71
2021/12/26 02:34:57;;;;;;;33.47;16.47;;;;;;;;;;5009243;28;20240;-71
2021/12/26 02:37:27;;;;;;;39.00;17.27;;;;;;;;;;4995424;28;20243;-71
2021/12/26 02:39:55;;;;;;;41.80;17.47;;;;;;;;;;5002149;28;20291;-71
2021/12/26 02:42:24;;;;;;;38.67;16.30;;;;;;;;;;5020234;28;20195;-71
2021/12/26 02:44:52;;;;;;;36.70;17.03;;;;;;;;;;5007276;28;20205;-72
2021/12/26 02:47:31;;;;;;;43.40;16.87;;;;;;;;;;4994952;28;20229;-71
2021/12/26 02:49:59;;;;;;;49.10;16.47;;;;;;;;;;4995323;28;20575;-71
2021/12/26 02:52:29;;;;;;;42.20;15.90;;;;;;;;;;4994979;28;20604;-71
2021/12/26 02:54:58;;;;;;;39.80;16.47;;;;;;;;;;4995042;28;20213;-71
2021/12/26 02:57:27;;;;;;;34.77;15.10;;;;;;;;;;5014826;28;20245;-71
2021/12/26 02:59:54;;;;;;;34.03;15.43;;;;;;;;;;5023675;28;20215;-70
2021/12/26 03:02:22;;;;;;;32.37;15.43;;;;;;;;;;5013384;28;20208;-71
2021/12/26 03:04:51;;;;;;;36.17;16.50;;;;;;;;;;5019429;28;20204;-70
2021/12/26 03:07:19;;;;;;;31.47;14.97;;;;;;;;;;5015245;28;20222;-71
2021/12/26 03:09:50;;;;;;;28.20;14.63;;;;;;;;;;5019119;28;20205;-71
2021/12/26 03:12:17;;;;;;;27.03;13.60;;;;;;;;;;5023799;28;20292;-71
2021/12/26 03:14:45;;;;;;;31.20;14.20;;;;;;;;;;5024130;28;20288;-71
2021/12/26 03:17:14;;;;;;;31.83;14.57;;;;;;;;;;5025323;28;20219;-70
2021/12/26 03:19:42;;;;;;;31.03;13.87;;;;;;;;;;5022650;28;20718;-71
2021/12/26 03:22:10;;;;;;;28.83;14.37;;;;;;;;;;5022105;28;20204;-70
2021/12/26 03:24:39;;;;;;;30.63;15.27;;;;;;;;;;5023354;28;20655;-71
2021/12/26 03:27:08;;;;;;;33.57;14.00;;;;;;;;;;5025732;28;20250;-71
2021/12/26 03:29:37;;;;;;;30.63;14.00;;;;;;;;;;5022219;28;20670;-71
2021/12/26 03:32:06;;;;;;;34.43;15.20;;;;;;;;;;5022015;28;20234;-71
2021/12/26 03:34:34;;;;;;;29.10;14.13;;;;;;;;;;5020754;28;20214;-71
2021/12/26 03:37:02;;;;;;;32.93;13.83;;;;;;;;;;5024111;28;20609;-70
2021/12/26 03:39:29;;;;;;;30.43;14.07;;;;;;;;;;5025774;28;20204;-71
2021/12/26 03:41:57;;;;;;;31.80;14.03;;;;;;;;;;5023263;28;20577;-70
2021/12/26 03:44:27;;;;;;;30.40;13.27;;;;;;;;;;5020368;28;20196;-71
2021/12/26 03:46:55;;;;;;;30.00;14.00;;;;;;;;;;5017354;28;20219;-70
2021/12/26 03:49:23;;;;;;;29.77;14.07;;;;;;;;;;5024805;28;20227;-70
2021/12/26 03:51:51;;;;;;;35.57;14.20;;;;;;;;;;5023732;28;20237;-70
2021/12/26 03:54:19;;;;;;;31.17;14.07;;;;;;;;;;5021299;28;20205;-71
2021/12/26 03:56:47;;;;;;;31.40;12.83;;;;;;;;;;5021680;28;20220;-71
2021/12/26 03:59:15;;;;;;;28.07;13.43;;;;;;;;;;5022808;28;20208;-71
2021/12/26 04:01:44;;;;;;;23.60;12.73;;;;;;;;;;5021714;28;20568;-71
2021/12/26 04:04:12;;;;;;;29.20;13.17;;;;;;;;;;5023161;28;20196;-71
2021/12/26 04:06:41;;;;;;;26.50;12.03;;;;;;;;;;5023949;28;20710;-71
2021/12/26 04:09:09;;;;;;;24.17;12.00;;;;;;;;;;5024519;28;20211;-71
2021/12/26 04:11:39;;;;;;;22.37;13.27;;;;;;;;;;5021309;28;20197;-71
2021/12/26 04:14:07;;;;;;;25.23;12.60;;;;;;;;;;5021097;28;20221;-70
2021/12/26 04:16:35;;;;;;;23.03;12.13;;;;;;;;;;5024685;28;20227;-71
2021/12/26 04:19:04;;;;;;;20.40;11.67;;;;;;;;;;5024552;28;20544;-69
2021/12/26 04:21:33;;;;;;;21.70;11.03;;;;;;;;;;5025247;28;20228;-70
2021/12/26 04:24:01;;;;;;;22.27;10.83;;;;;;;;;;5020431;28;20216;-70
2021/12/26 04:26:29;;;;;;;23.33;10.87;;;;;;;;;;5024884;28;20224;-71
2021/12/26 04:28:57;;;;;;;20.43;11.27;;;;;;;;;;5023157;28;20265;-71
2021/12/26 04:31:25;;;;;;;20.00;10.13;;;;;;;;;;5022139;28;20204;-71
2021/12/26 04:33:53;;;;;;;21.07;11.67;;;;;;;;;;5021551;28;20617;-70
2021/12/26 04:36:23;;;;;;;18.13;9.73;;;;;;;;;;5019720;28;20219;-70
2021/12/26 04:38:51;;;;;;;18.57;10.60;;;;;;;;;;5016861;28;20219;-70
2021/12/26 04:41:20;;;;;;;22.33;10.73;;;;;;;;;;5023812;28;20208;-71
2021/12/26 04:43:48;;;;;;;20.70;10.00;;;;;;;;;;5020966;28;20192;-71
2021/12/26 04:46:16;;;;;;;18.00;11.13;;;;;;;;;;5019684;28;20221;-70
2021/12/26 04:48:44;;;;;;;17.60;9.93;;;;;;;;;;5021711;28;20204;-70
2021/12/26 04:51:13;;;;;;;17.03;9.57;;;;;;;;;;5024937;28;20199;-71
2021/12/26 04:53:42;;;;;;;18.90;10.30;;;;;;;;;;5024192;28;20229;-71
2021/12/26 04:56:10;;;;;;;20.00;9.97;;;;;;;;;;5022849;28;20221;-71
2021/12/26 04:58:39;;;;;;;19.70;10.60;;;;;;;;;;5021769;28;20204;-70
2021/12/26 05:01:07;;;;;;;17.50;10.63;;;;;;;;;;5026635;28;20210;-70
2021/12/26 05:03:35;;;;;;;17.43;10.57;;;;;;;;;;5022196;28;20257;-71
2021/12/26 05:06:03;;;;;;;17.20;9.20;;;;;;;;;;5028270;28;20219;-70
2021/12/26 05:08:31;;;;;;;19.73;9.93;;;;;;;;;;5009795;28;20205;-71
2021/12/26 05:11:00;;;;;;;15.30;8.87;;;;;;;;;;4996458;28;20671;-70
2021/12/26 05:13:28;;;;;;;19.07;11.20;;;;;;;;;;5004103;28;20234;-70
2021/12/26 05:15:56;;;;;;;15.60;9.13;;;;;;;;;;5016576;28;20228;-70
2021/12/26 05:18:24;;;;;;;18.00;10.57;;;;;;;;;;5015217;28;20295;-71
2021/12/26 05:20:52;;;;;;;17.27;10.57;;;;;;;;;;5023284;28;20213;-70
2021/12/26 05:23:20;;;;;;;14.27;9.27;;;;;;;;;;5006881;28;20209;-70
2021/12/26 05:25:48;;;;;;;15.07;9.43;;;;;;;;;;4997215;28;20239;-70
2021/12/26 05:28:18;;;;;;;14.93;9.17;;;;;;;;;;4996697;28;20213;-70
2021/12/26 05:30:46;;;;;;;15.43;9.97;;;;;;;;;;5013959;28;20291;-71
2021/12/26 05:33:14;;;;;;;15.57;8.70;;;;;;;;;;5011877;28;20757;-71
2021/12/26 05:35:42;;;;;;;13.70;9.23;;;;;;;;;;5002504;28;20211;-70
2021/12/26 05:38:10;;;;;;;16.67;9.20;;;;;;;;;;4997942;28;20219;-70
2021/12/26 05:40:38;;;;;;;16.33;9.53;;;;;;;;;;4996199;28;20289;-70
2021/12/26 05:43:05;;;;;;;14.97;8.73;;;;;;;;;;5021148;28;20212;-71
2021/12/26 05:45:35;;;;;;;14.60;9.20;;;;;;;;;;4996110;28;20397;-71
2021/12/26 05:48:03;;;;;;;17.37;9.83;;;;;;;;;;4996229;28;20266;-71
2021/12/26 05:50:31;;;;;;;19.70;9.97;;;;;;;;;;5021159;28;20203;-71
2021/12/26 05:52:59;;;;;;;14.93;9.47;;;;;;;;;;4996073;28;20236;-70
2021/12/26 05:55:27;;;;;;;14.63;9.27;;;;;;;;;;4995823;28;20212;-71
2021/12/26 05:57:55;;;;;;;15.43;8.80;;;;;;;;;;5019510;28;20207;-70
2021/12/26 06:00:23;;;;;;;14.80;9.47;;;;;;;;;;5008206;28;20219;-71
2021/12/26 06:02:54;;;;;;;17.20;10.50;;;;;;;;;;5020297;28;20208;-71
2021/12/26 06:05:23;;;;;;;14.93;9.73;;;;;;;;;;5027930;28;20244;-71
2021/12/26 06:07:50;;;;;;;15.33;9.03;;;;;;;;;;5028006;28;20725;-71
2021/12/26 06:10:18;;;;;;;16.00;9.27;;;;;;;;;;5023311;28;20563;-70
2021/12/26 06:12:46;;;;;;;11.03;7.97;;;;;;;;;;5026789;28;20210;-71
2021/12/26 06:15:14;;;;;;;14.93;9.63;;;;;;;;;;5013915;28;20947;-71
2021/12/26 06:17:43;;;;;;;14.90;9.13;;;;;;;;;;5008780;28;20224;-71
2021/12/26 06:20:14;;;;;;;15.07;9.47;;;;;;;;;;5010894;28;20203;-70
2021/12/26 06:22:43;;;;;;;15.77;9.50;;;;;;;;;;5013614;28;20197;-70
2021/12/26 06:25:11;;;;;;;12.80;9.07;;;;;;;;;;5011504;28;20196;-70
2021/12/26 06:27:39;;;;;;;15.43;9.23;;;;;;;;;;5012034;28;20230;-71
2021/12/26 06:30:09;;;;;;;14.47;9.10;;;;;;;;;;5010610;28;20671;-70
2021/12/26 06:32:37;;;;;;;10.87;8.67;;;;;;;;;;5011732;28;20219;-70
2021/12/26 06:35:05;;;;;;;14.67;9.10;;;;;;;;;;5009874;28;20221;-70
2021/12/26 06:37:35;;;;;;;13.90;9.60;;;;;;;;;;5016653;28;20228;-70
2021/12/26 06:40:03;;;;;;;13.97;8.87;;;;;;;;;;5017403;28;20200;-70
2021/12/26 06:42:33;;;;;;;13.93;9.30;;;;;;;;;;5014105;28;20702;-70
2021/12/26 06:45:01;;;;;;;14.60;9.23;;;;;;;;;;5014310;28;20207;-71
2021/12/26 06:47:29;;;;;;;13.50;9.17;;;;;;;;;;5009603;28;20708;-71
2021/12/26 06:49:57;;;;;;;16.47;9.30;;;;;;;;;;5011996;28;20203;-70
2021/12/26 06:52:25;;;;;;;14.53;9.27;;;;;;;;;;5012772;28;20779;-70
2021/12/26 06:54:56;;;;;;;13.57;9.33;;;;;;;;;;5012833;28;20252;-71
2021/12/26 06:57:24;;;;;;;13.50;8.63;;;;;;;;;;5011053;28;20220;-71
2021/12/26 06:59:52;;;;;;;15.73;9.90;;;;;;;;;;5012106;28;20219;-71
2021/12/26 07:02:19;;;;;;;12.70;8.97;;;;;;;;;;5011816;28;20204;-71
2021/12/26 07:04:48;;;;;;;13.00;9.63;;;;;;;;;;5011977;28;20196;-70
2021/12/26 07:07:16;;;;;;;15.60;9.43;;;;;;;;;;5011105;28;20220;-71
2021/12/26 07:09:44;;;;;;;11.17;8.27;;;;;;;;;;5012390;28;20672;-71
2021/12/26 07:12:13;;;;;;;12.83;8.30;;;;;;;;;;5013627;28;20204;-71
2021/12/26 07:14:42;;;;;;;14.37;8.83;;;;;;;;;;5016940;28;20258;-71
2021/12/26 07:17:10;;;;;;;15.10;8.90;;;;;;;;;;5015860;28;20302;-70
2021/12/26 07:19:39;;;;;;;13.43;8.63;;;;;;;;;;5016958;28;20201;-70
2021/12/26 07:22:08;;;;;;;13.30;8.73;;;;;;;;;;5017602;28;20219;-71
2021/12/26 07:24:36;;;;;;;14.43;8.53;;;;;;;;;;5008773;28;20200;-70
2021/12/26 07:27:05;;;;;;;14.53;10.20;;;;;;;;;;5011315;28;20232;-71
2021/12/26 07:29:34;;;;;;;15.50;9.77;;;;;;;;;;4997454;28;20288;-70
2021/12/26 07:32:02;;;;;;;20.57;12.73;;;;;;;;;;4997576;28;20200;-70
2021/12/26 07:34:30;;;;;;;15.43;9.83;;;;;;;;;;5007319;28;20220;-71
2021/12/26 07:36:58;;;;;;;14.47;9.23;;;;;;;;;;5005394;28;20220;-71
2021/12/26 07:39:26;;;;;;;15.00;8.40;;;;;;;;;;5007208;28;20204;-71
2021/12/26 07:41:54;;;;;;;13.40;9.47;;;;;;;;;;5006015;28;20214;-70
2021/12/26 07:44:22;;;;;;;13.73;8.37;;;;;;;;;;5006011;28;20206;-71
2021/12/26 07:46:52;;;;;;;13.60;8.47;;;;;;;;;;5005223;28;20316;-71
2021/12/26 07:49:21;;;;;;;13.00;8.17;;;;;;;;;;5014392;28;20219;-71
2021/12/26 07:51:50;;;;;;;12.53;9.23;;;;;;;;;;5016087;28;20236;-70
2021/12/26 07:54:18;;;;;;;14.10;9.37;;;;;;;;;;5017237;28;20230;-71
2021/12/26 07:56:46;;;;;;;17.30;9.10;;;;;;;;;;5013752;28;20219;-70
2021/12/26 07:59:14;;;;;;;14.23;9.70;;;;;;;;;;5028266;28;20208;-71
2021/12/26 08:01:42;;;;;;;12.10;8.83;;;;;;;;;;5026736;28;20287;-71
2021/12/26 08:04:12;;;;;;;13.80;9.73;;;;;;;;;;5024883;28;20205;-71
2021/12/26 08:06:41;;;;;;;13.87;9.33;;;;;;;;;;5027722;28;20628;-69
2021/12/26 08:09:10;;;;;;;11.73;9.23;;;;;;;;;;5021294;28;20209;-70
2021/12/26 08:11:38;;;;;;;13.77;9.10;;;;;;;;;;5014009;28;20199;-66
2021/12/26 08:14:06;;;;;;;13.53;9.07;;;;;;;;;;5025152;28;20299;-65
2021/12/26 08:16:34;;;;;;;13.03;9.17;;;;;;;;;;5026991;28;21071;-65
2021/12/26 08:19:03;;;;;;;14.03;9.37;;;;;;;;;;5026288;28;20236;-64
2021/12/26 08:21:32;;;;;;;13.93;10.30;;;;;;;;;;5008913;28;20664;-65
2021/12/26 08:24:00;;;;;;;13.87;8.90;;;;;;;;;;5030027;28;20204;-65
2021/12/26 08:26:28;;;;;;;11.47;9.27;;;;;;;;;;5022588;28;20225;-65
2021/12/26 08:28:56;;;;;;;14.13;9.73;;;;;;;;;;5028747;28;20210;-65
2021/12/26 08:31:24;;;;;;;14.63;9.53;;;;;;;;;;5025369;28;20214;-66
2021/12/26 08:33:52;;;;;;;13.37;9.77;;;;;;;;;;5019232;28;20210;-67
2021/12/26 08:36:21;;;;;;;13.93;9.70;;;;;;;;;;5027691;28;20228;-67
2021/12/26 08:38:50;;;;;;;16.27;10.27;;;;;;;;;;5026105;28;20203;-67
2021/12/26 08:41:18;;;;;;;15.27;9.17;;;;;;;;;;5028170;28;20200;-67
2021/12/26 08:43:47;;;;;;;15.73;10.33;;;;;;;;;;5028998;28;20208;-66
2021/12/26 08:46:18;;;;;;;19.17;10.53;;;;;;;;;;5025230;28;20220;-67
2021/12/26 08:49:06;;;;;;;13.70;9.33;;;;;;;;;;5014633;28;20257;-66
2021/12/26 08:51:34;;;;;;;16.43;9.87;;;;;;;;;;5019041;28;20264;-66
2021/12/26 08:54:04;;;;;;;16.23;10.63;;;;;;;;;;5002322;28;20208;-66
2021/12/26 08:56:32;;;;;;;17.20;11.00;;;;;;;;;;5010462;28;20233;-66
2021/12/26 08:59:00;;;;;;;15.20;10.33;;;;;;;;;;5005682;28;20285;-67
2021/12/26 09:01:28;;;;;;;16.80;10.23;;;;;;;;;;5002899;28;20207;-66
2021/12/26 09:03:56;;;;;;;14.90;9.80;;;;;;;;;;5010584;28;20200;-66
2021/12/26 09:06:24;;;;;;;15.90;9.97;;;;;;;;;;5009586;28;20216;-66
2021/12/26 09:08:52;;;;;;;14.67;9.83;;;;;;;;;;5011841;28;20208;-66
2021/12/26 09:11:22;;;;;;;20.10;11.07;;;;;;;;;;5009554;28;20676;-66
2021/12/26 09:13:50;;;;;;;16.07;10.53;;;;;;;;;;5000709;28;20574;-66
2021/12/26 09:16:18;;;;;;;16.67;10.20;;;;;;;;;;5002653;28;20233;-66
2021/12/26 09:18:46;;;;;;;15.60;9.77;;;;;;;;;;5001598;28;20236;-67
2021/12/26 09:21:14;;;;;;;15.13;9.47;;;;;;;;;;5008634;28;20644;-66
2021/12/26 09:23:42;;;;;;;15.07;8.97;;;;;;;;;;5013775;28;20196;-66
2021/12/26 09:26:10;;;;;;;19.23;11.43;;;;;;;;;;5009850;28;20228;-67
2021/12/26 09:28:40;;;;;;;17.77;10.93;;;;;;;;;;5015583;28;20200;-67
2021/12/26 09:31:08;;;;;;;14.60;9.67;;;;;;;;;;5018176;28;20662;-68
2021/12/26 09:33:36;;;;;;;16.67;9.97;;;;;;;;;;5021846;28;20212;-69
2021/12/26 09:36:04;;;;;;;18.50;10.23;;;;;;;;;;5014989;28;20564;-67
2021/12/26 09:38:32;;;;;;;13.37;9.20;;;;;;;;;;5013378;28;20196;-66
2021/12/26 09:41:00;;;;;;;13.27;10.30;;;;;;;;;;5012973;28;20725;-67
2021/12/26 09:43:28;;;;;;;15.17;9.87;;;;;;;;;;5003205;28;20682;-67
2021/12/26 09:45:58;;;;;;;13.90;9.13;;;;;;;;;;5011060;28;20228;-67
2021/12/26 09:48:26;;;;;;;17.67;9.20;;;;;;;;;;5007026;28;20579;-71
2021/12/26 09:50:54;;;;;;;17.03;8.93;;;;;;;;;;5011412;28;20218;-70
2021/12/26 09:53:23;;;;;;;12.50;9.30;;;;;;;;;;5005570;28;20223;-70
2021/12/26 09:55:51;;;;;;;13.23;7.57;;;;;;;;;;5005342;28;20239;-69
2021/12/26 09:58:19;;;;;;;13.47;7.57;;;;;;;;;;5012919;28;20669;-69
2021/12/26 10:00:48;;;;;;;11.63;7.13;;;;;;;;;;5013400;28;20197;-69
2021/12/26 10:03:19;;;;;;;8.47;5.73;;;;;;;;;;5012468;28;20676;-72
2021/12/26 10:06:01;;;;;;;11.53;6.47;;;;;;;;;;5012404;28;20201;-71
2021/12/26 10:08:30;;;;;;;8.13;6.37;;;;;;;;;;5011483;28;20201;-71
2021/12/26 10:11:19;;;;;;;12.30;7.10;;;;;;;;;;5014091;28;20211;-70
2021/12/26 10:13:47;;;;;;;9.63;6.47;;;;;;;;;;5004807;28;20204;-70
2021/12/26 10:16:16;;;;;;;10.80;6.37;;;;;;;;;;5011963;28;20315;-70
2021/12/26 10:18:47;;;;;;;8.00;6.37;;;;;;;;;;5012920;28;20229;-70
2021/12/26 10:21:29;;;;;;;9.73;6.67;;;;;;;;;;5009190;28;20544;-71
2021/12/26 10:23:57;;;;;;;11.70;7.70;;;;;;;;;;5009901;28;20201;-69
2021/12/26 10:26:26;;;;;;;22.80;8.87;;;;;;;;;;5012843;28;20220;-70
2021/12/26 10:29:05;;;;;;;13.53;7.03;;;;;;;;;;5030497;28;20603;-70
2021/12/26 10:31:33;;;;;;;11.03;7.37;;;;;;;;;;5009150;28;20207;-68
2021/12/26 10:34:02;;;;;;;16.27;8.80;;;;;;;;;;5008852;28;20291;-71
2021/12/26 10:36:30;;;;;;;14.37;7.90;;;;;;;;;;5003671;28;20242;-66
2021/12/26 10:39:08;;;;;;;12.00;7.03;;;;;;;;;;5024960;28;20207;-68
2021/12/26 10:41:40;;;;;;;12.97;7.27;;;;;;;;;;5008010;28;20291;-67
2021/12/26 10:44:08;;;;;;;11.60;7.43;;;;;;;;;;5027775;28;20655;-66
2021/12/26 10:46:38;;;;;;;15.43;8.00;;;;;;;;;;5003319;28;20591;-67
2021/12/26 10:49:23;;;;;;;13.70;7.07;;;;;;;;;;4999954;28;20217;-66
2021/12/26 10:51:51;;;;;;;12.13;7.10;;;;;;;;;;5002714;28;20261;-68
2021/12/26 10:54:20;;;;;;;11.00;7.17;;;;;;;;;;4998649;28;20672;-66
2021/12/26 10:57:04;;;;;;;10.37;6.60;;;;;;;;;;5006108;28;20239;-68
2021/12/26 10:59:32;;;;;;;10.93;7.13;;;;;;;;;;5007045;28;20201;-68
2021/12/26 11:02:00;;;;;;;10.33;6.70;;;;;;;;;;5011121;28;20212;-68
2021/12/26 11:04:30;;;;;;;11.57;7.37;;;;;;;;;;5012243;28;20200;-67
2021/12/26 11:06:59;;;;;;;12.97;7.17;;;;;;;;;;5009145;28;20832;-68
2021/12/26 11:09:27;;;;;;;13.47;7.10;;;;;;;;;;5010412;28;20208;-67
2021/12/26 11:12:03;;;;;;;13.27;7.23;;;;;;;;;;5006124;28;20212;-68
2021/12/26 11:14:31;;;;;;;10.93;6.80;;;;;;;;;;5010379;28;20208;-69
2021/12/26 11:16:59;;;;;;;11.77;7.50;;;;;;;;;;5012261;28;20232;-68
2021/12/26 11:19:42;;;;;;;14.67;8.73;;;;;;;;;;5013341;28;21053;-70
2021/12/26 11:22:11;;;;;;;15.60;8.50;;;;;;;;;;5023593;28;20224;-70
2021/12/26 11:24:39;;;;;;;11.10;6.93;;;;;;;;;;5012924;28;20203;-70
2021/12/26 11:27:07;;;;;;;11.07;6.80;;;;;;;;;;5017486;28;20213;-68
2021/12/26 11:29:35;;;;;;;13.57;7.77;;;;;;;;;;5016550;28;20211;-70
2021/12/26 11:32:04;;;;;;;11.03;7.13;;;;;;;;;;5014037;28;20273;-68
2021/12/26 11:34:37;;;;;;;12.30;7.43;;;;;;;;;;5014943;28;20204;-69
2021/12/26 11:37:07;;;;;;;13.73;8.10;;;;;;;;;;5013882;28;20332;-68
2021/12/26 11:39:37;;;;;;;13.37;7.83;;;;;;;;;;5053109;28;20197;-69
2021/12/26 11:42:15;;;;;;;12.13;8.27;;;;;;;;;;5009368;28;20660;-69
2021/12/26 11:44:51;;;;;;;10.83;7.23;;;;;;;;;;5015199;28;20204;-66
2021/12/26 11:47:46;;;;;;;14.77;8.33;;;;;;;;;;5010243;28;20278;-67
2021/12/26 11:50:19;;;;;;;16.13;8.73;;;;;;;;;;5005975;28;20217;-67
2021/12/26 11:53:00;;;;;;;13.80;8.97;;;;;;;;;;5001476;28;20243;-68
2021/12/26 11:55:33;;;;;;;13.07;7.83;;;;;;;;;;5031232;28;20205;-68
2021/12/26 11:58:06;;;;;;;11.73;7.83;;;;;;;;;;5001379;28;20255;-67
2021/12/26 12:00:37;;;;;;;13.13;7.33;;;;;;;;;;5014294;28;20210;-68
2021/12/26 12:03:06;;;;;;;13.80;8.03;;;;;;;;;;5008315;28;20215;-68
2021/12/26 12:05:37;;;;;;;13.53;7.67;;;;;;;;;;5003695;28;20255;-68
2021/12/26 12:08:07;;;;;;;13.33;7.67;;;;;;;;;;5009148;28;20222;-68
2021/12/26 12:10:37;;;;;;;14.30;8.20;;;;;;;;;;5011973;28;20227;-67
2021/12/26 12:13:06;;;;;;;17.43;8.80;;;;;;;;;;5012339;28;20216;-68
2021/12/26 12:15:42;;;;;;;12.37;8.23;;;;;;;;;;5011567;28;20205;-68
2021/12/26 12:18:11;;;;;;;13.07;8.70;;;;;;;;;;5001516;28;20274;-69
2021/12/26 12:20:39;;;;;;;14.87;8.33;;;;;;;;;;5004738;28;20208;-69
2021/12/26 12:23:21;;;;;;;12.53;8.00;;;;;;;;;;5009333;28;20655;-69
2021/12/26 12:25:52;;;;;;;12.63;7.63;;;;;;;;;;5012836;28;20242;-69
2021/12/26 12:28:21;;;;;;;11.77;7.77;;;;;;;;;;5012562;28;20243;-70
2021/12/26 12:30:50;;;;;;;16.43;8.73;;;;;;;;;;5014062;28;20212;-69
2021/12/26 12:33:21;;;;;;;19.00;9.00;;;;;;;;;;5012864;28;20701;-69
2021/12/26 12:35:50;;;;;;;16.67;7.60;;;;;;;;;;5000524;28;20217;-68
2021/12/26 12:38:24;;;;;;;12.80;7.20;;;;;;;;;;5002306;28;20217;-70
2021/12/26 12:40:52;;;;;;;15.40;8.07;;;;;;;;;;4999049;28;20200;-70
2021/12/26 12:43:20;;;;;;;12.93;8.77;;;;;;;;;;5000250;28;20235;-70
2021/12/26 12:46:04;;;;;;;10.97;7.97;;;;;;;;;;4999528;28;20623;-69
2021/12/26 12:48:34;;;;;;;13.33;7.83;;;;;;;;;;5006658;28;20202;-71
2021/12/26 12:51:04;;;;;;;11.80;7.93;;;;;;;;;;5010176;28;20218;-71
2021/12/26 12:53:40;;;;;;;12.07;8.53;;;;;;;;;;5010315;28;20248;-71
2021/12/26 12:56:08;;;;;;;15.40;8.27;;;;;;;;;;5008269;28;20224;-71
2021/12/26 12:58:36;;;;;;;14.50;7.73;;;;;;;;;;5002397;28;20234;-71
2021/12/26 13:01:06;;;;;;;13.40;8.47;;;;;;;;;;5002089;28;20209;-71
2021/12/26 13:03:36;;;;;;;15.57;9.13;;;;;;;;;;5009497;28;20620;-70
2021/12/26 13:06:08;;;;;;;15.47;9.23;;;;;;;;;;5014285;28;20224;-70
2021/12/26 13:08:36;;;;;;;13.50;8.87;;;;;;;;;;5013091;28;20299;-70
2021/12/26 13:11:08;;;;;;;12.40;7.90;;;;;;;;;;5014376;28;20204;-70
2021/12/26 13:13:39;;;;;;;12.60;7.60;;;;;;;;;;5012598;28;20215;-70
2021/12/26 13:16:07;;;;;;;13.00;8.17;;;;;;;;;;5009628;28;20229;-70
2021/12/26 13:18:38;;;;;;;16.60;9.10;;;;;;;;;;5011110;28;20232;-70
2021/12/26 13:21:09;;;;;;;12.63;8.10;;;;;;;;;;5003735;28;20205;-70
2021/12/26 13:23:38;;;;;;;15.40;8.97;;;;;;;;;;5002715;28;20213;-70
2021/12/26 13:26:08;;;;;;;13.10;8.00;;;;;;;;;;5002728;28;20233;-70
2021/12/26 13:28:37;;;;;;;16.57;9.23;;;;;;;;;;5002018;28;20204;-69
2021/12/26 13:31:10;;;;;;;18.37;9.70;;;;;;;;;;5013697;28;20234;-67
2021/12/26 13:33:38;;;;;;;16.20;10.17;;;;;;;;;;5012901;28;20205;-71
2021/12/26 13:36:08;;;;;;;60.00;46.47;;;;;;;;;;5006323;28;20220;-67
2021/12/26 13:38:37;;;;;;;18.53;11.80;;;;;;;;;;5005538;28;20232;-66
2021/12/26 13:41:05;;;;;;;16.10;9.53;;;;;;;;;;5005680;28;20201;-66
2021/12/26 13:43:35;;;;;;;16.50;10.37;;;;;;;;;;5015377;28;20210;-66
2021/12/26 13:46:05;;;;;;;16.30;10.77;;;;;;;;;;5027154;28;20216;-67
2021/12/26 13:48:34;;;;;;;13.53;8.87;;;;;;;;;;5014450;28;20567;-64
2021/12/26 13:51:20;;;;;;;17.47;10.13;;;;;;;;;;5001633;28;20244;-64
2021/12/26 13:53:48;;;;;;;18.33;10.03;;;;;;;;;;5002103;28;20224;-66
2021/12/26 13:56:16;;;;;;;16.57;9.90;;;;;;;;;;5003583;28;20229;-66
2021/12/26 13:58:45;;;;;;;15.97;10.27;;;;;;;;;;5009215;28;20236;-67
2021/12/26 14:01:14;;;;;;;14.27;9.57;;;;;;;;;;5008524;28;20215;-66
2021/12/26 14:03:46;;;;;;;16.27;10.33;;;;;;;;;;5012081;28;20565;-66
2021/12/26 14:06:15;;;;;;;13.03;8.53;;;;;;;;;;5013581;28;20232;-66
2021/12/26 14:08:43;;;;;;;13.30;8.33;;;;;;;;;;5012398;28;20215;-66
2021/12/26 14:11:11;;;;;;;14.00;8.63;;;;;;;;;;5013683;28;20659;-66
2021/12/26 14:13:49;;;;;;;14.77;8.77;;;;;;;;;;5011966;28;20204;-67
2021/12/26 14:16:24;;;;;;;13.47;8.90;;;;;;;;;;5013287;28;20242;-67
2021/12/26 14:18:52;;;;;;;12.63;8.83;;;;;;;;;;5011003;28;20231;-67
2021/12/26 14:21:21;;;;;;;14.37;9.73;;;;;;;;;;5009430;28;20205;-66
2021/12/26 14:23:51;;;;;;;14.83;9.47;;;;;;;;;;5008200;28;20257;-66
2021/12/26 14:26:20;;;;;;;15.00;8.80;;;;;;;;;;5000743;28;20233;-67
2021/12/26 14:28:51;;;;;;;15.30;9.20;;;;;;;;;;5000981;28;20204;-67
2021/12/26 14:31:29;;;;;;;13.53;8.97;;;;;;;;;;5005319;28;20204;-67
2021/12/26 14:33:57;;;;;;;15.77;9.80;;;;;;;;;;5010928;28;20577;-67
2021/12/26 14:36:25;;;;;;;16.40;9.53;;;;;;;;;;4999916;28;20229;-67
2021/12/26 14:38:54;;;;;;;15.07;9.13;;;;;;;;;;5001343;28;20235;-66
2021/12/26 14:41:22;;;;;;;17.90;10.33;;;;;;;;;;5000872;28;20212;-66